sensor_id;sensor_type;location;lat;lon;timestamp;temperature;humidity
5130;DHT22;2583;50.946;6.954;2023-02-26T00:01:21;1.90;1.00
5130;DHT22;2583;50.946;6.954;2023-02-26T00:03:49;1.90;1.00
5130;DHT22;2583;50.946;6.954;2023-02-26T00:06:16;1.80;1.00
5130;DHT22;2583;50.946;6.954;2023-02-26T00:08:43;1.80;1.00
5130;DHT22;2583;50.946;6.954;2023-02-26T00:11:11;1.90;1.00
5130;DHT22;2583;50.946;6.954;2023-02-26T00:13:40;1.90;1.00
5130;DHT22;2583;50.946;6.954;2023-02-26T00:16:21;2.00;1.00
5130;DHT22;2583;50.946;6.954;2023-02-26T00:18:50;1.90;1.00
5130;DHT22;2583;50.946;6.954;2023-02-26T00:21:22;2.00;1.00
5130;DHT22;2583;50.946;6.954;2023-02-26T00:23:49;2.00;1.00
5130;DHT22;2583;50.946;6.954;2023-02-26T00:26:16;2.00;1.00
5130;DHT22;2583;50.946;6.954;2023-02-26T00:28:43;2.10;1.00
5130;DHT22;2583;50.946;6.954;2023-02-26T00:31:10;2.00;1.00
5130;DHT22;2583;50.946;6.954;2023-02-26T00:33:39;2.00;1.00
5130;DHT22;2583;50.946;6.954;2023-02-26T00:36:28;2.00;1.00
5130;DHT22;2583;50.946;6.954;2023-02-26T00:39:21;2.10;1.00
5130;DHT22;2583;50.946;6.954;2023-02-26T00:41:52;2.10;1.00
5130;DHT22;2583;50.946;6.954;2023-02-26T00:44:20;2.10;1.00
5130;DHT22;2583;50.946;6.954;2023-02-26T00:52:01;2.20;1.00
5130;DHT22;2583;50.946;6.954;2023-02-26T00:54:31;2.20;1.00
5130;DHT22;2583;50.946;6.954;2023-02-26T00:56:58;2.20;1.00
5130;DHT22;2583;50.946;6.954;2023-02-26T00:59:25;2.20;1.00
5130;DHT22;2583;50.946;6.954;2023-02-26T01:01:52;2.20;1.00
5130;DHT22;2583;50.946;6.954;2023-02-26T01:04:21;2.20;1.00
5130;DHT22;2583;50.946;6.954;2023-02-26T01:06:53;2.20;1.00
5130;DHT22;2583;50.946;6.954;2023-02-26T01:11:48;2.20;1.00
5130;DHT22;2583;50.946;6.954;2023-02-26T01:14:16;2.20;1.00
5130;DHT22;2583;50.946;6.954;2023-02-26T01:22:32;2.10;1.00
5130;DHT22;2583;50.946;6.954;2023-02-26T01:25:11;2.00;1.00
5130;DHT22;2583;50.946;6.954;2023-02-26T01:27:38;2.00;1.00
5130;DHT22;2583;50.946;6.954;2023-02-26T01:30:06;2.00;1.00
5130;DHT22;2583;50.946;6.954;2023-02-26T01:32:47;2.00;1.00
5130;DHT22;2583;50.946;6.954;2023-02-26T01:35:41;2.00;1.00
5130;DHT22;2583;50.946;6.954;2023-02-26T01:38:28;2.00;1.00
5130;DHT22;2583;50.946;6.954;2023-02-26T01:43:56;2.00;1.00
5130;DHT22;2583;50.946;6.954;2023-02-26T01:46:53;2.00;1.00
5130;DHT22;2583;50.946;6.954;2023-02-26T01:49:23;1.90;1.00
5130;DHT22;2583;50.946;6.954;2023-02-26T01:51:53;1.90;1.00
5130;DHT22;2583;50.946;6.954;2023-02-26T01:54:31;1.90;1.00
5130;DHT22;2583;50.946;6.954;2023-02-26T01:57:05;1.90;1.00
5130;DHT22;2583;50.946;6.954;2023-02-26T01:59:36;1.90;1.00
5130;DHT22;2583;50.946;6.954;2023-02-26T02:02:06;1.90;1.00
5130;DHT22;2583;50.946;6.954;2023-02-26T02:04:33;2.00;1.00
5130;DHT22;2583;50.946;6.954;2023-02-26T02:07:01;2.10;1.00
5130;DHT22;2583;50.946;6.954;2023-02-26T02:09:28;2.00;1.00
5130;DHT22;2583;50.946;6.954;2023-02-26T02:12:17;2.10;1.00
5130;DHT22;2583;50.946;6.954;2023-02-26T02:23:21;2.00;1.00
5130;DHT22;2583;50.946;6.954;2023-02-26T02:31:25;2.00;1.00
5130;DHT22;2583;50.946;6.954;2023-02-26T02:34:02;1.90;1.00
5130;DHT22;2583;50.946;6.954;2023-02-26T02:36:52;1.90;1.00
5130;DHT22;2583;50.946;6.954;2023-02-26T02:39:41;1.80;1.00
5130;DHT22;2583;50.946;6.954;2023-02-26T02:42:21;1.90;1.00
5130;DHT22;2583;50.946;6.954;2023-02-26T02:44:54;1.80;1.00
5130;DHT22;2583;50.946;6.954;2023-02-26T02:47:22;1.80;1.00
5130;DHT22;2583;50.946;6.954;2023-02-26T02:50:04;1.70;1.00
5130;DHT22;2583;50.946;6.954;2023-02-26T02:55:20;1.80;1.00
5130;DHT22;2583;50.946;6.954;2023-02-26T02:58:04;1.70;1.00
5130;DHT22;2583;50.946;6.954;2023-02-26T03:00:35;1.70;1.00
5130;DHT22;2583;50.946;6.954;2023-02-26T03:03:18;1.60;1.00
5130;DHT22;2583;50.946;6.954;2023-02-26T03:05:46;1.60;1.00
5130;DHT22;2583;50.946;6.954;2023-02-26T03:08:16;1.60;1.00
5130;DHT22;2583;50.946;6.954;2023-02-26T03:10:44;1.60;1.00
5130;DHT22;2583;50.946;6.954;2023-02-26T03:13:16;1.60;1.00
5130;DHT22;2583;50.946;6.954;2023-02-26T03:16:15;1.60;1.00
5130;DHT22;2583;50.946;6.954;2023-02-26T03:22:04;1.50;1.00
5130;DHT22;2583;50.946;6.954;2023-02-26T03:24:39;1.40;1.00
5130;DHT22;2583;50.946;6.954;2023-02-26T03:27:34;1.40;1.00
5130;DHT22;2583;50.946;6.954;2023-02-26T03:30:31;1.40;1.00
5130;DHT22;2583;50.946;6.954;2023-02-26T03:36:12;1.40;1.00
5130;DHT22;2583;50.946;6.954;2023-02-26T03:39:08;1.30;1.00
5130;DHT22;2583;50.946;6.954;2023-02-26T03:41:43;1.30;1.00
5130;DHT22;2583;50.946;6.954;2023-02-26T03:44:24;1.20;1.00
5130;DHT22;2583;50.946;6.954;2023-02-26T03:46:55;1.20;1.00
5130;DHT22;2583;50.946;6.954;2023-02-26T03:49:28;1.10;1.00
5130;DHT22;2583;50.946;6.954;2023-02-26T03:51:58;1.20;1.00
5130;DHT22;2583;50.946;6.954;2023-02-26T03:54:38;1.20;1.00
5130;DHT22;2583;50.946;6.954;2023-02-26T03:57:07;1.20;1.00
5130;DHT22;2583;50.946;6.954;2023-02-26T03:59:34;1.20;1.00
5130;DHT22;2583;50.946;6.954;2023-02-26T04:02:12;1.10;1.00
5130;DHT22;2583;50.946;6.954;2023-02-26T04:04:52;1.10;1.00
5130;DHT22;2583;50.946;6.954;2023-02-26T04:07:21;1.10;1.00
5130;DHT22;2583;50.946;6.954;2023-02-26T04:09:50;1.00;1.00
5130;DHT22;2583;50.946;6.954;2023-02-26T04:12:25;1.00;1.00
5130;DHT22;2583;50.946;6.954;2023-02-26T04:14:52;1.00;1.00
5130;DHT22;2583;50.946;6.954;2023-02-26T04:17:19;1.00;1.00
5130;DHT22;2583;50.946;6.954;2023-02-26T04:19:46;1.00;1.00
5130;DHT22;2583;50.946;6.954;2023-02-26T04:22:13;1.00;1.00
5130;DHT22;2583;50.946;6.954;2023-02-26T04:24:40;1.00;1.00
5130;DHT22;2583;50.946;6.954;2023-02-26T04:27:07;1.00;1.00
5130;DHT22;2583;50.946;6.954;2023-02-26T04:29:34;1.00;1.00
5130;DHT22;2583;50.946;6.954;2023-02-26T04:32:00;1.10;1.00
5130;DHT22;2583;50.946;6.954;2023-02-26T04:34:27;1.00;1.00
5130;DHT22;2583;50.946;6.954;2023-02-26T04:36:54;1.00;1.00
5130;DHT22;2583;50.946;6.954;2023-02-26T04:39:22;1.00;1.00
5130;DHT22;2583;50.946;6.954;2023-02-26T04:41:49;1.00;1.00
5130;DHT22;2583;50.946;6.954;2023-02-26T04:44:16;1.00;1.00
5130;DHT22;2583;50.946;6.954;2023-02-26T04:46:42;1.00;1.00
5130;DHT22;2583;50.946;6.954;2023-02-26T04:49:09;0.90;1.00
5130;DHT22;2583;50.946;6.954;2023-02-26T04:51:36;1.00;1.00
5130;DHT22;2583;50.946;6.954;2023-02-26T04:54:03;0.90;1.00
5130;DHT22;2583;50.946;6.954;2023-02-26T04:56:30;0.90;1.00
5130;DHT22;2583;50.946;6.954;2023-02-26T04:58:58;0.90;1.00
5130;DHT22;2583;50.946;6.954;2023-02-26T05:01:24;0.90;1.00
5130;DHT22;2583;50.946;6.954;2023-02-26T05:03:51;1.00;1.00
5130;DHT22;2583;50.946;6.954;2023-02-26T05:06:18;1.00;1.00
5130;DHT22;2583;50.946;6.954;2023-02-26T05:08:45;1.00;1.00
5130;DHT22;2583;50.946;6.954;2023-02-26T05:11:12;0.90;1.00
5130;DHT22;2583;50.946;6.954;2023-02-26T05:13:39;0.90;1.00
5130;DHT22;2583;50.946;6.954;2023-02-26T05:16:06;0.90;1.00
5130;DHT22;2583;50.946;6.954;2023-02-26T05:18:33;0.90;1.00
5130;DHT22;2583;50.946;6.954;2023-02-26T05:21:00;0.90;1.00
5130;DHT22;2583;50.946;6.954;2023-02-26T05:23:27;0.90;1.00
5130;DHT22;2583;50.946;6.954;2023-02-26T05:25:55;0.80;1.00
5130;DHT22;2583;50.946;6.954;2023-02-26T05:28:26;0.80;1.00
5130;DHT22;2583;50.946;6.954;2023-02-26T05:30:54;0.80;1.00
5130;DHT22;2583;50.946;6.954;2023-02-26T05:33:21;0.80;1.00
5130;DHT22;2583;50.946;6.954;2023-02-26T05:35:48;0.80;1.00
5130;DHT22;2583;50.946;6.954;2023-02-26T05:38:15;0.80;1.00
5130;DHT22;2583;50.946;6.954;2023-02-26T05:40:41;0.80;1.00
5130;DHT22;2583;50.946;6.954;2023-02-26T05:43:09;0.80;1.00
5130;DHT22;2583;50.946;6.954;2023-02-26T05:45:35;0.80;1.00
5130;DHT22;2583;50.946;6.954;2023-02-26T05:48:02;0.80;1.00
5130;DHT22;2583;50.946;6.954;2023-02-26T05:50:29;0.80;1.00
5130;DHT22;2583;50.946;6.954;2023-02-26T05:52:56;0.80;1.00
5130;DHT22;2583;50.946;6.954;2023-02-26T05:55:23;0.80;1.00
5130;DHT22;2583;50.946;6.954;2023-02-26T05:57:50;0.80;1.00
5130;DHT22;2583;50.946;6.954;2023-02-26T06:00:17;0.70;1.00
5130;DHT22;2583;50.946;6.954;2023-02-26T06:02:44;0.70;1.00
5130;DHT22;2583;50.946;6.954;2023-02-26T06:05:11;0.60;1.00
5130;DHT22;2583;50.946;6.954;2023-02-26T06:07:38;0.60;1.00
5130;DHT22;2583;50.946;6.954;2023-02-26T06:10:06;0.60;1.00
5130;DHT22;2583;50.946;6.954;2023-02-26T06:12:34;0.60;1.00
5130;DHT22;2583;50.946;6.954;2023-02-26T06:15:01;0.60;1.00
5130;DHT22;2583;50.946;6.954;2023-02-26T06:17:28;0.60;1.00
5130;DHT22;2583;50.946;6.954;2023-02-26T06:19:54;0.60;1.00
5130;DHT22;2583;50.946;6.954;2023-02-26T06:22:21;0.50;1.00
5130;DHT22;2583;50.946;6.954;2023-02-26T06:24:48;0.60;1.00
5130;DHT22;2583;50.946;6.954;2023-02-26T06:27:15;0.60;1.00
5130;DHT22;2583;50.946;6.954;2023-02-26T06:29:42;0.50;1.00
5130;DHT22;2583;50.946;6.954;2023-02-26T06:32:09;0.60;1.00
5130;DHT22;2583;50.946;6.954;2023-02-26T06:34:36;0.50;1.00
5130;DHT22;2583;50.946;6.954;2023-02-26T06:37:02;0.60;1.00
5130;DHT22;2583;50.946;6.954;2023-02-26T06:39:29;0.60;1.00
5130;DHT22;2583;50.946;6.954;2023-02-26T06:41:56;0.60;1.00
5130;DHT22;2583;50.946;6.954;2023-02-26T06:44:23;0.60;1.00
5130;DHT22;2583;50.946;6.954;2023-02-26T06:46:50;0.60;1.00
5130;DHT22;2583;50.946;6.954;2023-02-26T06:49:17;0.60;1.00
5130;DHT22;2583;50.946;6.954;2023-02-26T06:51:44;0.60;1.00
5130;DHT22;2583;50.946;6.954;2023-02-26T06:54:10;0.60;1.00
5130;DHT22;2583;50.946;6.954;2023-02-26T06:56:37;0.60;1.00
5130;DHT22;2583;50.946;6.954;2023-02-26T06:59:04;0.60;1.00
5130;DHT22;2583;50.946;6.954;2023-02-26T07:01:32;0.60;1.00
5130;DHT22;2583;50.946;6.954;2023-02-26T07:03:58;0.50;1.00
5130;DHT22;2583;50.946;6.954;2023-02-26T07:06:25;0.50;1.00
5130;DHT22;2583;50.946;6.954;2023-02-26T07:08:54;0.60;1.00
5130;DHT22;2583;50.946;6.954;2023-02-26T07:11:21;0.50;1.00
5130;DHT22;2583;50.946;6.954;2023-02-26T07:13:48;0.60;1.00
5130;DHT22;2583;50.946;6.954;2023-02-26T07:16:17;0.60;1.00
5130;DHT22;2583;50.946;6.954;2023-02-26T07:18:43;0.50;1.00
5130;DHT22;2583;50.946;6.954;2023-02-26T07:21:10;0.50;1.00
5130;DHT22;2583;50.946;6.954;2023-02-26T07:23:37;0.60;1.00
5130;DHT22;2583;50.946;6.954;2023-02-26T07:26:04;0.60;1.00
5130;DHT22;2583;50.946;6.954;2023-02-26T07:28:31;0.60;1.00
5130;DHT22;2583;50.946;6.954;2023-02-26T07:30:58;0.60;1.00
5130;DHT22;2583;50.946;6.954;2023-02-26T07:33:25;0.60;1.00
5130;DHT22;2583;50.946;6.954;2023-02-26T07:35:54;0.70;1.00
5130;DHT22;2583;50.946;6.954;2023-02-26T07:38:20;0.70;1.00
5130;DHT22;2583;50.946;6.954;2023-02-26T07:40:47;0.70;1.00
5130;DHT22;2583;50.946;6.954;2023-02-26T07:43:14;0.70;1.00
5130;DHT22;2583;50.946;6.954;2023-02-26T07:45:41;0.70;1.00
5130;DHT22;2583;50.946;6.954;2023-02-26T07:48:08;0.80;1.00
5130;DHT22;2583;50.946;6.954;2023-02-26T07:50:34;0.80;1.00
5130;DHT22;2583;50.946;6.954;2023-02-26T07:53:02;0.80;1.00
5130;DHT22;2583;50.946;6.954;2023-02-26T07:55:29;0.80;1.00
5130;DHT22;2583;50.946;6.954;2023-02-26T07:57:55;0.90;1.00
5130;DHT22;2583;50.946;6.954;2023-02-26T08:00:22;0.90;1.00
5130;DHT22;2583;50.946;6.954;2023-02-26T08:02:49;0.90;1.00
5130;DHT22;2583;50.946;6.954;2023-02-26T08:05:16;1.00;1.00
5130;DHT22;2583;50.946;6.954;2023-02-26T08:07:43;1.00;1.00
5130;DHT22;2583;50.946;6.954;2023-02-26T08:10:10;1.00;1.00
5130;DHT22;2583;50.946;6.954;2023-02-26T08:12:37;0.90;1.00
5130;DHT22;2583;50.946;6.954;2023-02-26T08:15:05;1.00;1.00
5130;DHT22;2583;50.946;6.954;2023-02-26T08:17:32;1.00;1.00
5130;DHT22;2583;50.946;6.954;2023-02-26T08:19:59;1.10;1.00
5130;DHT22;2583;50.946;6.954;2023-02-26T08:22:26;1.20;1.00
5130;DHT22;2583;50.946;6.954;2023-02-26T08:24:52;1.30;1.00
5130;DHT22;2583;50.946;6.954;2023-02-26T08:27:19;1.40;1.00
5130;DHT22;2583;50.946;6.954;2023-02-26T08:29:46;1.40;1.00
5130;DHT22;2583;50.946;6.954;2023-02-26T08:32:16;1.40;1.00
5130;DHT22;2583;50.946;6.954;2023-02-26T08:34:45;1.60;1.00
5130;DHT22;2583;50.946;6.954;2023-02-26T08:37:12;1.60;1.00
5130;DHT22;2583;50.946;6.954;2023-02-26T08:39:39;1.60;1.00
5130;DHT22;2583;50.946;6.954;2023-02-26T08:42:07;1.70;1.00
5130;DHT22;2583;50.946;6.954;2023-02-26T08:44:34;1.70;1.00
5130;DHT22;2583;50.946;6.954;2023-02-26T08:47:01;1.80;1.00
5130;DHT22;2583;50.946;6.954;2023-02-26T08:49:29;2.00;1.00
5130;DHT22;2583;50.946;6.954;2023-02-26T08:51:56;2.10;1.00
5130;DHT22;2583;50.946;6.954;2023-02-26T08:54:22;2.10;1.00
5130;DHT22;2583;50.946;6.954;2023-02-26T08:56:49;2.20;1.00
5130;DHT22;2583;50.946;6.954;2023-02-26T08:59:16;2.40;1.00
5130;DHT22;2583;50.946;6.954;2023-02-26T09:01:43;2.30;1.00
5130;DHT22;2583;50.946;6.954;2023-02-26T09:04:10;2.40;1.00
5130;DHT22;2583;50.946;6.954;2023-02-26T09:06:37;2.60;1.00
5130;DHT22;2583;50.946;6.954;2023-02-26T09:09:03;2.60;1.00
5130;DHT22;2583;50.946;6.954;2023-02-26T09:11:30;2.70;1.00
5130;DHT22;2583;50.946;6.954;2023-02-26T09:13:58;2.80;1.00
5130;DHT22;2583;50.946;6.954;2023-02-26T09:16:25;2.80;1.00
5130;DHT22;2583;50.946;6.954;2023-02-26T09:18:52;3.00;1.00
5130;DHT22;2583;50.946;6.954;2023-02-26T09:21:19;3.10;1.00
5130;DHT22;2583;50.946;6.954;2023-02-26T09:23:46;3.10;1.00
5130;DHT22;2583;50.946;6.954;2023-02-26T09:26:13;3.20;1.00
5130;DHT22;2583;50.946;6.954;2023-02-26T09:28:40;3.30;1.00
5130;DHT22;2583;50.946;6.954;2023-02-26T09:31:07;3.30;1.00
5130;DHT22;2583;50.946;6.954;2023-02-26T09:33:34;3.40;1.00
5130;DHT22;2583;50.946;6.954;2023-02-26T09:36:02;3.50;1.00
5130;DHT22;2583;50.946;6.954;2023-02-26T09:38:29;3.40;1.00
5130;DHT22;2583;50.946;6.954;2023-02-26T09:41:15;3.30;1.00
5130;DHT22;2583;50.946;6.954;2023-02-26T09:47:03;3.60;1.00
5130;DHT22;2583;50.946;6.954;2023-02-26T09:49:52;3.60;1.00
5130;DHT22;2583;50.946;6.954;2023-02-26T09:55:04;3.90;1.00
5130;DHT22;2583;50.946;6.954;2023-02-26T09:57:34;3.90;1.00
5130;DHT22;2583;50.946;6.954;2023-02-26T10:00:13;4.20;1.00
5130;DHT22;2583;50.946;6.954;2023-02-26T10:08:05;4.50;1.00
5130;DHT22;2583;50.946;6.954;2023-02-26T10:13:47;4.40;1.00
5130;DHT22;2583;50.946;6.954;2023-02-26T10:16:28;4.50;1.00
5130;DHT22;2583;50.946;6.954;2023-02-26T10:19:05;4.70;1.00
5130;DHT22;2583;50.946;6.954;2023-02-26T10:21:41;4.70;1.00
5130;DHT22;2583;50.946;6.954;2023-02-26T10:27:05;4.60;1.00
5130;DHT22;2583;50.946;6.954;2023-02-26T10:29:59;5.00;1.00
5130;DHT22;2583;50.946;6.954;2023-02-26T10:35:14;4.90;1.00
5130;DHT22;2583;50.946;6.954;2023-02-26T10:43:37;4.80;1.00
5130;DHT22;2583;50.946;6.954;2023-02-26T10:51:16;4.80;1.00
5130;DHT22;2583;50.946;6.954;2023-02-26T10:53:51;4.90;1.00
5130;DHT22;2583;50.946;6.954;2023-02-26T10:56:32;5.00;1.00
5130;DHT22;2583;50.946;6.954;2023-02-26T10:58:59;5.20;1.00
5130;DHT22;2583;50.946;6.954;2023-02-26T11:01:27;4.80;1.00
5130;DHT22;2583;50.946;6.954;2023-02-26T11:04:17;4.90;1.00
5130;DHT22;2583;50.946;6.954;2023-02-26T11:06:54;5.00;1.00
5130;DHT22;2583;50.946;6.954;2023-02-26T11:09:34;4.70;1.00
5130;DHT22;2583;50.946;6.954;2023-02-26T11:14:32;4.50;1.00
5130;DHT22;2583;50.946;6.954;2023-02-26T11:17:03;4.20;1.00
5130;DHT22;2583;50.946;6.954;2023-02-26T11:19:45;4.20;1.00
5130;DHT22;2583;50.946;6.954;2023-02-26T11:22:16;4.20;1.00
5130;DHT22;2583;50.946;6.954;2023-02-26T11:24:46;4.00;1.00
5130;DHT22;2583;50.946;6.954;2023-02-26T11:27:18;4.00;1.00
5130;DHT22;2583;50.946;6.954;2023-02-26T11:29:48;3.90;1.00
5130;DHT22;2583;50.946;6.954;2023-02-26T11:32:22;4.00;1.00
5130;DHT22;2583;50.946;6.954;2023-02-26T11:34:50;4.00;1.00
5130;DHT22;2583;50.946;6.954;2023-02-26T11:37:20;4.00;1.00
5130;DHT22;2583;50.946;6.954;2023-02-26T11:40:15;4.10;1.00
5130;DHT22;2583;50.946;6.954;2023-02-26T11:42:48;4.20;1.00
5130;DHT22;2583;50.946;6.954;2023-02-26T11:45:18;4.50;1.00
5130;DHT22;2583;50.946;6.954;2023-02-26T11:47:47;4.60;1.00
5130;DHT22;2583;50.946;6.954;2023-02-26T11:50:18;4.80;1.00
5130;DHT22;2583;50.946;6.954;2023-02-26T11:52:55;4.90;1.00
5130;DHT22;2583;50.946;6.954;2023-02-26T11:55:32;4.60;1.00
5130;DHT22;2583;50.946;6.954;2023-02-26T11:57:59;4.50;1.00
5130;DHT22;2583;50.946;6.954;2023-02-26T12:00:31;4.40;1.00
5130;DHT22;2583;50.946;6.954;2023-02-26T12:03:03;4.20;1.00
5130;DHT22;2583;50.946;6.954;2023-02-26T12:05:31;4.00;1.00
5130;DHT22;2583;50.946;6.954;2023-02-26T12:07:58;4.00;1.00
5130;DHT22;2583;50.946;6.954;2023-02-26T12:13:30;4.00;1.00
5130;DHT22;2583;50.946;6.954;2023-02-26T12:16:17;4.10;1.00
5130;DHT22;2583;50.946;6.954;2023-02-26T12:24:37;4.50;1.00
5130;DHT22;2583;50.946;6.954;2023-02-26T12:30:02;4.80;1.00
5130;DHT22;2583;50.946;6.954;2023-02-26T12:32:38;5.10;1.00
5130;DHT22;2583;50.946;6.954;2023-02-26T12:41:01;5.80;1.00
5130;DHT22;2583;50.946;6.954;2023-02-26T12:43:35;6.00;1.00
5130;DHT22;2583;50.946;6.954;2023-02-26T12:46:11;6.20;1.00
5130;DHT22;2583;50.946;6.954;2023-02-26T12:51:44;6.50;1.00
5130;DHT22;2583;50.946;6.954;2023-02-26T13:08:37;6.70;1.00
5130;DHT22;2583;50.946;6.954;2023-02-26T13:16:30;5.60;1.00
5130;DHT22;2583;50.946;6.954;2023-02-26T13:22:41;5.50;1.00
5130;DHT22;2583;50.946;6.954;2023-02-26T13:25:21;5.90;1.00
5130;DHT22;2583;50.946;6.954;2023-02-26T13:27:54;6.40;1.00
5130;DHT22;2583;50.946;6.954;2023-02-26T13:30:37;6.30;1.00
5130;DHT22;2583;50.946;6.954;2023-02-26T13:33:17;6.00;1.00
5130;DHT22;2583;50.946;6.954;2023-02-26T13:35:45;6.20;1.00
5130;DHT22;2583;50.946;6.954;2023-02-26T13:38:27;6.60;1.00
5130;DHT22;2583;50.946;6.954;2023-02-26T13:43:43;7.20;1.00
5130;DHT22;2583;50.946;6.954;2023-02-26T13:48:57;8.00;1.00
5130;DHT22;2583;50.946;6.954;2023-02-26T13:56:53;8.40;1.00
5130;DHT22;2583;50.946;6.954;2023-02-26T14:02:49;8.30;1.00
5130;DHT22;2583;50.946;6.954;2023-02-26T14:04:58;8.90;1.00
5130;DHT22;2583;50.946;6.954;2023-02-26T14:08:44;9.60;1.00
5130;DHT22;2583;50.946;6.954;2023-02-26T14:16:54;9.80;1.00
5130;DHT22;2583;50.946;6.954;2023-02-26T14:24:57;10.30;1.00
5130;DHT22;2583;50.946;6.954;2023-02-26T14:30:18;10.10;1.00
5130;DHT22;2583;50.946;6.954;2023-02-26T14:35:29;10.40;1.00
5130;DHT22;2583;50.946;6.954;2023-02-26T14:38:04;10.40;1.00
5130;DHT22;2583;50.946;6.954;2023-02-26T14:40:41;10.80;1.00
5130;DHT22;2583;50.946;6.954;2023-02-26T14:43:18;10.60;1.00
5130;DHT22;2583;50.946;6.954;2023-02-26T14:45:46;9.80;1.00
5130;DHT22;2583;50.946;6.954;2023-02-26T14:48:16;8.80;1.00
5130;DHT22;2583;50.946;6.954;2023-02-26T14:51:24;8.40;1.00
5130;DHT22;2583;50.946;6.954;2023-02-26T15:23:44;5.50;1.00
5130;DHT22;2583;50.946;6.954;2023-02-26T15:26:35;5.50;1.00
5130;DHT22;2583;50.946;6.954;2023-02-26T15:29:07;5.50;1.00
5130;DHT22;2583;50.946;6.954;2023-02-26T15:34:29;5.30;1.00
5130;DHT22;2583;50.946;6.954;2023-02-26T15:36:56;5.20;1.00
5130;DHT22;2583;50.946;6.954;2023-02-26T15:39:26;5.10;1.00
5130;DHT22;2583;50.946;6.954;2023-02-26T15:41:54;5.10;1.00
5130;DHT22;2583;50.946;6.954;2023-02-26T15:44:26;5.10;1.00
5130;DHT22;2583;50.946;6.954;2023-02-26T15:46:56;5.10;1.00
5130;DHT22;2583;50.946;6.954;2023-02-26T15:49:33;5.10;1.00
5130;DHT22;2583;50.946;6.954;2023-02-26T15:52:01;5.10;1.00
5130;DHT22;2583;50.946;6.954;2023-02-26T15:54:38;5.00;1.00
5130;DHT22;2583;50.946;6.954;2023-02-26T15:57:08;5.00;1.00
5130;DHT22;2583;50.946;6.954;2023-02-26T15:59:41;5.00;1.00
5130;DHT22;2583;50.946;6.954;2023-02-26T16:02:14;5.10;1.00
5130;DHT22;2583;50.946;6.954;2023-02-26T16:04:42;5.00;1.00
5130;DHT22;2583;50.946;6.954;2023-02-26T16:07:11;5.00;1.00
5130;DHT22;2583;50.946;6.954;2023-02-26T16:09:40;4.90;1.00
5130;DHT22;2583;50.946;6.954;2023-02-26T16:14:53;5.00;1.00
5130;DHT22;2583;50.946;6.954;2023-02-26T16:17:28;4.90;1.00
5130;DHT22;2583;50.946;6.954;2023-02-26T16:19:58;4.90;1.00
5130;DHT22;2583;50.946;6.954;2023-02-26T16:22:41;4.90;1.00
5130;DHT22;2583;50.946;6.954;2023-02-26T16:25:17;4.80;1.00
5130;DHT22;2583;50.946;6.954;2023-02-26T16:28:04;4.70;1.00
5130;DHT22;2583;50.946;6.954;2023-02-26T16:30:34;4.60;1.00
5130;DHT22;2583;50.946;6.954;2023-02-26T16:33:04;4.70;1.00
5130;DHT22;2583;50.946;6.954;2023-02-26T16:35:37;4.70;1.00
5130;DHT22;2583;50.946;6.954;2023-02-26T16:38:18;4.60;1.00
5130;DHT22;2583;50.946;6.954;2023-02-26T16:40:46;4.50;1.00
5130;DHT22;2583;50.946;6.954;2023-02-26T16:46:00;4.50;1.00
5130;DHT22;2583;50.946;6.954;2023-02-26T16:48:39;4.50;1.00
5130;DHT22;2583;50.946;6.954;2023-02-26T16:51:11;4.50;1.00
5130;DHT22;2583;50.946;6.954;2023-02-26T16:53:59;4.50;1.00
5130;DHT22;2583;50.946;6.954;2023-02-26T16:56:29;4.50;1.00
5130;DHT22;2583;50.946;6.954;2023-02-26T16:59:04;4.50;1.00
5130;DHT22;2583;50.946;6.954;2023-02-26T17:01:37;4.40;1.00
5130;DHT22;2583;50.946;6.954;2023-02-26T17:04:05;4.40;1.00
5130;DHT22;2583;50.946;6.954;2023-02-26T17:06:37;4.30;1.00
5130;DHT22;2583;50.946;6.954;2023-02-26T17:09:06;4.30;1.00
5130;DHT22;2583;50.946;6.954;2023-02-26T17:11:40;4.30;1.00
5130;DHT22;2583;50.946;6.954;2023-02-26T17:14:20;4.20;1.00
5130;DHT22;2583;50.946;6.954;2023-02-26T17:16:49;4.20;1.00
5130;DHT22;2583;50.946;6.954;2023-02-26T17:19:16;4.20;1.00
5130;DHT22;2583;50.946;6.954;2023-02-26T17:21:49;4.10;1.00
5130;DHT22;2583;50.946;6.954;2023-02-26T17:24:40;4.10;1.00
5130;DHT22;2583;50.946;6.954;2023-02-26T17:27:22;4.10;1.00
5130;DHT22;2583;50.946;6.954;2023-02-26T17:29:50;4.00;1.00
5130;DHT22;2583;50.946;6.954;2023-02-26T17:32:19;4.00;1.00
5130;DHT22;2583;50.946;6.954;2023-02-26T17:34:47;4.00;1.00
5130;DHT22;2583;50.946;6.954;2023-02-26T17:37:15;3.90;1.00
5130;DHT22;2583;50.946;6.954;2023-02-26T17:39:42;3.90;1.00
5130;DHT22;2583;50.946;6.954;2023-02-26T17:42:18;3.90;1.00
5130;DHT22;2583;50.946;6.954;2023-02-26T17:44:46;3.90;1.00
5130;DHT22;2583;50.946;6.954;2023-02-26T17:47:16;3.80;1.00
5130;DHT22;2583;50.946;6.954;2023-02-26T17:49:43;3.90;1.00
5130;DHT22;2583;50.946;6.954;2023-02-26T17:52:10;3.90;1.00
5130;DHT22;2583;50.946;6.954;2023-02-26T17:54:37;3.80;1.00
5130;DHT22;2583;50.946;6.954;2023-02-26T17:57:05;3.80;1.00
5130;DHT22;2583;50.946;6.954;2023-02-26T17:59:32;3.80;1.00
5130;DHT22;2583;50.946;6.954;2023-02-26T18:01:59;3.80;1.00
5130;DHT22;2583;50.946;6.954;2023-02-26T18:04:26;3.80;1.00
5130;DHT22;2583;50.946;6.954;2023-02-26T18:06:55;3.80;1.00
5130;DHT22;2583;50.946;6.954;2023-02-26T18:09:21;3.80;1.00
5130;DHT22;2583;50.946;6.954;2023-02-26T18:11:48;3.80;1.00
5130;DHT22;2583;50.946;6.954;2023-02-26T18:14:15;3.80;1.00
5130;DHT22;2583;50.946;6.954;2023-02-26T18:16:43;3.70;1.00
5130;DHT22;2583;50.946;6.954;2023-02-26T18:19:13;3.70;1.00
5130;DHT22;2583;50.946;6.954;2023-02-26T18:21:41;3.70;1.00
5130;DHT22;2583;50.946;6.954;2023-02-26T18:24:07;3.70;1.00
5130;DHT22;2583;50.946;6.954;2023-02-26T18:26:34;3.60;1.00
5130;DHT22;2583;50.946;6.954;2023-02-26T18:29:01;3.70;1.00
5130;DHT22;2583;50.946;6.954;2023-02-26T18:31:28;3.60;1.00
5130;DHT22;2583;50.946;6.954;2023-02-26T18:34:01;3.60;1.00
5130;DHT22;2583;50.946;6.954;2023-02-26T18:36:30;3.50;1.00
5130;DHT22;2583;50.946;6.954;2023-02-26T18:39:11;3.50;1.00
5130;DHT22;2583;50.946;6.954;2023-02-26T18:41:38;3.50;1.00
5130;DHT22;2583;50.946;6.954;2023-02-26T18:44:05;3.50;1.00
5130;DHT22;2583;50.946;6.954;2023-02-26T18:46:32;3.50;1.00
5130;DHT22;2583;50.946;6.954;2023-02-26T18:49:02;3.50;1.00
5130;DHT22;2583;50.946;6.954;2023-02-26T18:51:28;3.40;1.00
5130;DHT22;2583;50.946;6.954;2023-02-26T18:53:55;3.40;1.00
5130;DHT22;2583;50.946;6.954;2023-02-26T18:56:22;3.40;1.00
5130;DHT22;2583;50.946;6.954;2023-02-26T18:58:49;3.30;1.00
5130;DHT22;2583;50.946;6.954;2023-02-26T19:01:16;3.30;1.00
5130;DHT22;2583;50.946;6.954;2023-02-26T19:03:43;3.40;1.00
5130;DHT22;2583;50.946;6.954;2023-02-26T19:06:09;3.30;1.00
5130;DHT22;2583;50.946;6.954;2023-02-26T19:08:36;3.40;1.00
5130;DHT22;2583;50.946;6.954;2023-02-26T19:11:03;3.30;1.00
5130;DHT22;2583;50.946;6.954;2023-02-26T19:13:30;3.30;1.00
5130;DHT22;2583;50.946;6.954;2023-02-26T19:15:57;3.30;1.00
5130;DHT22;2583;50.946;6.954;2023-02-26T19:18:24;3.30;1.00
5130;DHT22;2583;50.946;6.954;2023-02-26T19:20:51;3.30;1.00
5130;DHT22;2583;50.946;6.954;2023-02-26T19:23:17;3.30;1.00
5130;DHT22;2583;50.946;6.954;2023-02-26T19:25:45;3.40;1.00
5130;DHT22;2583;50.946;6.954;2023-02-26T19:28:11;3.30;1.00
5130;DHT22;2583;50.946;6.954;2023-02-26T19:30:38;3.30;1.00
5130;DHT22;2583;50.946;6.954;2023-02-26T19:33:06;3.30;1.00
5130;DHT22;2583;50.946;6.954;2023-02-26T19:35:33;3.30;1.00
5130;DHT22;2583;50.946;6.954;2023-02-26T19:38:00;3.30;1.00
5130;DHT22;2583;50.946;6.954;2023-02-26T19:40:27;3.20;1.00
5130;DHT22;2583;50.946;6.954;2023-02-26T19:42:55;3.20;1.00
5130;DHT22;2583;50.946;6.954;2023-02-26T19:45:21;3.10;1.00
5130;DHT22;2583;50.946;6.954;2023-02-26T19:47:48;3.10;1.00
5130;DHT22;2583;50.946;6.954;2023-02-26T19:50:15;3.10;1.00
5130;DHT22;2583;50.946;6.954;2023-02-26T19:52:44;3.10;1.00
5130;DHT22;2583;50.946;6.954;2023-02-26T19:55:11;3.10;1.00
5130;DHT22;2583;50.946;6.954;2023-02-26T19:57:40;3.00;1.00
5130;DHT22;2583;50.946;6.954;2023-02-26T20:00:09;3.00;1.00
5130;DHT22;2583;50.946;6.954;2023-02-26T20:02:36;3.00;1.00
5130;DHT22;2583;50.946;6.954;2023-02-26T20:05:03;3.00;1.00